sensor_id;sensor_type;location;lat;lon;timestamp;P1;durP1;ratioP1;P2;durP2;ratioP2
7213;SDS011;3648;50.614;13.830;2023-06-19T00:01:07;7.53;;;6.10;;
7213;SDS011;3648;50.614;13.830;2023-06-19T00:03:33;6.40;;;5.80;;
7213;SDS011;3648;50.614;13.830;2023-06-19T00:06:00;6.73;;;6.03;;
7213;SDS011;3648;50.614;13.830;2023-06-19T00:08:29;6.33;;;5.73;;
7213;SDS011;3648;50.614;13.830;2023-06-19T00:10:56;7.57;;;6.57;;
7213;SDS011;3648;50.614;13.830;2023-06-19T00:13:23;7.73;;;6.93;;
7213;SDS011;3648;50.614;13.830;2023-06-19T00:15:49;5.97;;;5.40;;
7213;SDS011;3648;50.614;13.830;2023-06-19T00:18:16;6.27;;;5.70;;
7213;SDS011;3648;50.614;13.830;2023-06-19T00:20:44;6.23;;;5.50;;
7213;SDS011;3648;50.614;13.830;2023-06-19T00:23:12;6.37;;;5.73;;
7213;SDS011;3648;50.614;13.830;2023-06-19T00:25:43;5.60;;;5.10;;
7213;SDS011;3648;50.614;13.830;2023-06-19T00:28:10;6.23;;;5.63;;
7213;SDS011;3648;50.614;13.830;2023-06-19T00:30:38;6.50;;;5.90;;
7213;SDS011;3648;50.614;13.830;2023-06-19T00:33:06;6.10;;;5.50;;
7213;SDS011;3648;50.614;13.830;2023-06-19T00:35:34;6.50;;;5.80;;
7213;SDS011;3648;50.614;13.830;2023-06-19T00:38:01;6.30;;;5.67;;
7213;SDS011;3648;50.614;13.830;2023-06-19T00:40:29;6.73;;;6.13;;
7213;SDS011;3648;50.614;13.830;2023-06-19T00:42:58;6.77;;;6.07;;
7213;SDS011;3648;50.614;13.830;2023-06-19T00:45:25;6.97;;;6.27;;
7213;SDS011;3648;50.614;13.830;2023-06-19T00:47:53;8.47;;;6.60;;
7213;SDS011;3648;50.614;13.830;2023-06-19T00:50:21;7.37;;;6.07;;
7213;SDS011;3648;50.614;13.830;2023-06-19T00:52:48;6.47;;;5.87;;
7213;SDS011;3648;50.614;13.830;2023-06-19T00:55:15;7.10;;;6.40;;
7213;SDS011;3648;50.614;13.830;2023-06-19T00:57:42;6.67;;;6.07;;
7213;SDS011;3648;50.614;13.830;2023-06-19T01:00:12;5.93;;;5.33;;
7213;SDS011;3648;50.614;13.830;2023-06-19T01:02:39;6.60;;;6.00;;
7213;SDS011;3648;50.614;13.830;2023-06-19T01:05:06;6.73;;;6.03;;
7213;SDS011;3648;50.614;13.830;2023-06-19T01:07:36;7.40;;;6.60;;
7213;SDS011;3648;50.614;13.830;2023-06-19T01:10:09;5.87;;;5.23;;
7213;SDS011;3648;50.614;13.830;2023-06-19T01:12:45;5.63;;;5.10;;
7213;SDS011;3648;50.614;13.830;2023-06-19T01:15:18;6.20;;;5.60;;
7213;SDS011;3648;50.614;13.830;2023-06-19T01:17:48;7.13;;;6.43;;
7213;SDS011;3648;50.614;13.830;2023-06-19T01:20:16;7.20;;;6.10;;
7213;SDS011;3648;50.614;13.830;2023-06-19T01:22:44;9.90;;;6.20;;
7213;SDS011;3648;50.614;13.830;2023-06-19T01:25:11;6.57;;;5.97;;
7213;SDS011;3648;50.614;13.830;2023-06-19T01:27:39;6.07;;;5.43;;
7213;SDS011;3648;50.614;13.830;2023-06-19T01:30:07;6.87;;;6.27;;
7213;SDS011;3648;50.614;13.830;2023-06-19T01:32:40;6.40;;;5.80;;
7213;SDS011;3648;50.614;13.830;2023-06-19T01:35:14;7.40;;;6.70;;
7213;SDS011;3648;50.614;13.830;2023-06-19T01:37:45;7.27;;;6.53;;
7213;SDS011;3648;50.614;13.830;2023-06-19T01:40:15;6.70;;;5.90;;
7213;SDS011;3648;50.614;13.830;2023-06-19T01:42:45;7.13;;;6.43;;
7213;SDS011;3648;50.614;13.830;2023-06-19T01:45:13;7.00;;;6.30;;
7213;SDS011;3648;50.614;13.830;2023-06-19T01:47:40;7.20;;;6.50;;
7213;SDS011;3648;50.614;13.830;2023-06-19T01:50:08;7.63;;;6.77;;
7213;SDS011;3648;50.614;13.830;2023-06-19T01:52:36;7.10;;;6.47;;
7213;SDS011;3648;50.614;13.830;2023-06-19T01:55:05;7.20;;;6.50;;
7213;SDS011;3648;50.614;13.830;2023-06-19T01:57:34;7.70;;;6.63;;
7213;SDS011;3648;50.614;13.830;2023-06-19T02:00:02;7.37;;;6.70;;
7213;SDS011;3648;50.614;13.830;2023-06-19T02:02:31;7.20;;;6.50;;
7213;SDS011;3648;50.614;13.830;2023-06-19T02:04:58;8.10;;;6.37;;
7213;SDS011;3648;50.614;13.830;2023-06-19T02:07:25;7.03;;;6.33;;
7213;SDS011;3648;50.614;13.830;2023-06-19T02:09:52;7.10;;;6.40;;
7213;SDS011;3648;50.614;13.830;2023-06-19T02:12:20;7.30;;;6.50;;
7213;SDS011;3648;50.614;13.830;2023-06-19T02:14:47;7.10;;;6.40;;
7213;SDS011;3648;50.614;13.830;2023-06-19T02:17:14;7.27;;;6.57;;
7213;SDS011;3648;50.614;13.830;2023-06-19T02:19:41;7.23;;;6.53;;
7213;SDS011;3648;50.614;13.830;2023-06-19T02:22:08;6.60;;;6.00;;
7213;SDS011;3648;50.614;13.830;2023-06-19T02:24:35;8.70;;;6.37;;
7213;SDS011;3648;50.614;13.830;2023-06-19T02:27:04;7.17;;;6.43;;
7213;SDS011;3648;50.614;13.830;2023-06-19T02:29:33;7.57;;;6.43;;
7213;SDS011;3648;50.614;13.830;2023-06-19T02:32:00;7.30;;;6.53;;
7213;SDS011;3648;50.614;13.830;2023-06-19T02:34:27;6.80;;;6.20;;
7213;SDS011;3648;50.614;13.830;2023-06-19T02:36:54;7.90;;;6.63;;
7213;SDS011;3648;50.614;13.830;2023-06-19T02:39:21;8.27;;;5.80;;
7213;SDS011;3648;50.614;13.830;2023-06-19T02:41:48;7.80;;;7.00;;
7213;SDS011;3648;50.614;13.830;2023-06-19T02:44:15;6.77;;;6.07;;
7213;SDS011;3648;50.614;13.830;2023-06-19T02:46:43;7.13;;;6.43;;
7213;SDS011;3648;50.614;13.830;2023-06-19T02:49:10;7.20;;;6.50;;
7213;SDS011;3648;50.614;13.830;2023-06-19T02:51:37;7.70;;;6.53;;
7213;SDS011;3648;50.614;13.830;2023-06-19T02:54:04;6.90;;;6.30;;
7213;SDS011;3648;50.614;13.830;2023-06-19T02:56:31;7.50;;;6.80;;
7213;SDS011;3648;50.614;13.830;2023-06-19T02:58:58;6.53;;;5.93;;
7213;SDS011;3648;50.614;13.830;2023-06-19T03:01:25;7.13;;;6.43;;
7213;SDS011;3648;50.614;13.830;2023-06-19T03:03:53;7.33;;;6.63;;
7213;SDS011;3648;50.614;13.830;2023-06-19T03:06:20;7.13;;;6.43;;
7213;SDS011;3648;50.614;13.830;2023-06-19T03:08:47;8.23;;;7.33;;
7213;SDS011;3648;50.614;13.830;2023-06-19T03:11:14;7.23;;;6.53;;
7213;SDS011;3648;50.614;13.830;2023-06-19T03:13:45;6.70;;;6.10;;
7213;SDS011;3648;50.614;13.830;2023-06-19T03:16:13;6.97;;;6.30;;
7213;SDS011;3648;50.614;13.830;2023-06-19T03:18:40;7.07;;;6.47;;
7213;SDS011;3648;50.614;13.830;2023-06-19T03:21:11;7.47;;;6.67;;
7213;SDS011;3648;50.614;13.830;2023-06-19T03:23:38;8.73;;;6.57;;
7213;SDS011;3648;50.614;13.830;2023-06-19T03:26:06;7.67;;;6.97;;
7213;SDS011;3648;50.614;13.830;2023-06-19T03:28:33;8.63;;;7.37;;
7213;SDS011;3648;50.614;13.830;2023-06-19T03:31:00;7.17;;;6.47;;
7213;SDS011;3648;50.614;13.830;2023-06-19T03:33:26;7.60;;;6.80;;
7213;SDS011;3648;50.614;13.830;2023-06-19T03:35:53;7.60;;;6.83;;
7213;SDS011;3648;50.614;13.830;2023-06-19T03:38:22;7.93;;;7.20;;
7213;SDS011;3648;50.614;13.830;2023-06-19T03:40:49;7.87;;;7.07;;
7213;SDS011;3648;50.614;13.830;2023-06-19T03:43:16;7.67;;;6.97;;
7213;SDS011;3648;50.614;13.830;2023-06-19T03:45:43;7.80;;;7.10;;
7213;SDS011;3648;50.614;13.830;2023-06-19T03:48:10;8.57;;;7.67;;
7213;SDS011;3648;50.614;13.830;2023-06-19T03:50:37;7.83;;;7.03;;
7213;SDS011;3648;50.614;13.830;2023-06-19T03:53:04;7.23;;;6.53;;
7213;SDS011;3648;50.614;13.830;2023-06-19T03:55:33;8.27;;;7.37;;
7213;SDS011;3648;50.614;13.830;2023-06-19T03:58:00;7.47;;;6.77;;
7213;SDS011;3648;50.614;13.830;2023-06-19T04:00:26;8.27;;;7.23;;
7213;SDS011;3648;50.614;13.830;2023-06-19T04:02:54;7.53;;;6.83;;
7213;SDS011;3648;50.614;13.830;2023-06-19T04:05:21;7.87;;;6.80;;
7213;SDS011;3648;50.614;13.830;2023-06-19T04:07:48;9.37;;;7.80;;
7213;SDS011;3648;50.614;13.830;2023-06-19T04:10:15;9.40;;;7.83;;
7213;SDS011;3648;50.614;13.830;2023-06-19T04:12:44;8.57;;;7.70;;
7213;SDS011;3648;50.614;13.830;2023-06-19T04:15:12;8.27;;;7.57;;
7213;SDS011;3648;50.614;13.830;2023-06-19T04:17:39;8.00;;;7.20;;
7213;SDS011;3648;50.614;13.830;2023-06-19T04:20:07;7.33;;;6.63;;
7213;SDS011;3648;50.614;13.830;2023-06-19T04:22:36;9.67;;;7.90;;
7213;SDS011;3648;50.614;13.830;2023-06-19T04:25:04;8.70;;;6.77;;
7213;SDS011;3648;50.614;13.830;2023-06-19T04:27:32;7.67;;;6.97;;
7213;SDS011;3648;50.614;13.830;2023-06-19T04:30:01;8.07;;;7.27;;
7213;SDS011;3648;50.614;13.830;2023-06-19T04:32:29;9.17;;;7.97;;
7213;SDS011;3648;50.614;13.830;2023-06-19T04:34:56;8.13;;;7.33;;
7213;SDS011;3648;50.614;13.830;2023-06-19T04:37:23;8.50;;;7.57;;
7213;SDS011;3648;50.614;13.830;2023-06-19T04:39:50;7.90;;;7.20;;
7213;SDS011;3648;50.614;13.830;2023-06-19T04:42:17;11.47;;;7.87;;
7213;SDS011;3648;50.614;13.830;2023-06-19T04:44:45;7.70;;;7.00;;
7213;SDS011;3648;50.614;13.830;2023-06-19T04:47:13;8.43;;;7.63;;
7213;SDS011;3648;50.614;13.830;2023-06-19T04:49:42;9.23;;;8.33;;
7213;SDS011;3648;50.614;13.830;2023-06-19T04:52:09;8.53;;;7.13;;
7213;SDS011;3648;50.614;13.830;2023-06-19T04:54:36;8.67;;;7.77;;
7213;SDS011;3648;50.614;13.830;2023-06-19T04:57:04;8.77;;;7.97;;
7213;SDS011;3648;50.614;13.830;2023-06-19T04:59:33;8.70;;;7.90;;
7213;SDS011;3648;50.614;13.830;2023-06-19T05:02:00;9.60;;;7.80;;
7213;SDS011;3648;50.614;13.830;2023-06-19T05:04:28;10.20;;;8.47;;
7213;SDS011;3648;50.614;13.830;2023-06-19T05:06:57;9.70;;;8.67;;
7213;SDS011;3648;50.614;13.830;2023-06-19T05:09:24;8.83;;;8.03;;
7213;SDS011;3648;50.614;13.830;2023-06-19T05:11:51;8.90;;;8.00;;
7213;SDS011;3648;50.614;13.830;2023-06-19T05:14:19;9.83;;;8.23;;
7213;SDS011;3648;50.614;13.830;2023-06-19T05:16:45;10.17;;;8.27;;
7213;SDS011;3648;50.614;13.830;2023-06-19T05:19:12;10.37;;;9.30;;
7213;SDS011;3648;50.614;13.830;2023-06-19T05:21:41;9.93;;;8.93;;
7213;SDS011;3648;50.614;13.830;2023-06-19T05:24:08;11.73;;;9.60;;
7213;SDS011;3648;50.614;13.830;2023-06-19T05:26:35;10.50;;;9.27;;
7213;SDS011;3648;50.614;13.830;2023-06-19T05:29:02;11.60;;;9.57;;
7213;SDS011;3648;50.614;13.830;2023-06-19T05:31:29;9.43;;;8.47;;
7213;SDS011;3648;50.614;13.830;2023-06-19T05:33:56;9.50;;;8.60;;
7213;SDS011;3648;50.614;13.830;2023-06-19T05:36:23;13.13;;;8.63;;
7213;SDS011;3648;50.614;13.830;2023-06-19T05:38:52;10.30;;;8.53;;
7213;SDS011;3648;50.614;13.830;2023-06-19T05:41:19;9.90;;;8.70;;
7213;SDS011;3648;50.614;13.830;2023-06-19T05:43:46;12.37;;;8.90;;
7213;SDS011;3648;50.614;13.830;2023-06-19T05:46:13;9.57;;;8.57;;
7213;SDS011;3648;50.614;13.830;2023-06-19T05:48:40;8.37;;;7.53;;
7213;SDS011;3648;50.614;13.830;2023-06-19T05:51:07;9.90;;;8.90;;
7213;SDS011;3648;50.614;13.830;2023-06-19T05:53:34;9.47;;;8.57;;
7213;SDS011;3648;50.614;13.830;2023-06-19T05:56:02;9.30;;;8.37;;
7213;SDS011;3648;50.614;13.830;2023-06-19T05:58:30;12.20;;;9.60;;
7213;SDS011;3648;50.614;13.830;2023-06-19T06:00:57;8.70;;;7.80;;
7213;SDS011;3648;50.614;13.830;2023-06-19T06:03:24;9.63;;;8.73;;
7213;SDS011;3648;50.614;13.830;2023-06-19T06:05:53;11.90;;;8.97;;
7213;SDS011;3648;50.614;13.830;2023-06-19T06:08:20;13.90;;;9.60;;
7213;SDS011;3648;50.614;13.830;2023-06-19T06:10:47;10.17;;;8.87;;
7213;SDS011;3648;50.614;13.830;2023-06-19T06:13:15;12.93;;;9.50;;
7213;SDS011;3648;50.614;13.830;2023-06-19T06:15:42;12.50;;;10.37;;
7213;SDS011;3648;50.614;13.830;2023-06-19T06:18:09;13.60;;;10.17;;
7213;SDS011;3648;50.614;13.830;2023-06-19T06:20:36;11.60;;;9.33;;
7213;SDS011;3648;50.614;13.830;2023-06-19T06:23:03;14.83;;;11.27;;
7213;SDS011;3648;50.614;13.830;2023-06-19T06:25:30;16.03;;;11.43;;
7213;SDS011;3648;50.614;13.830;2023-06-19T06:27:57;15.37;;;10.77;;
7213;SDS011;3648;50.614;13.830;2023-06-19T06:30:26;13.90;;;11.27;;
7213;SDS011;3648;50.614;13.830;2023-06-19T06:32:54;16.43;;;11.40;;
7213;SDS011;3648;50.614;13.830;2023-06-19T06:35:21;14.77;;;11.37;;
7213;SDS011;3648;50.614;13.830;2023-06-19T06:37:48;13.83;;;11.00;;
7213;SDS011;3648;50.614;13.830;2023-06-19T06:40:15;14.57;;;10.83;;
7213;SDS011;3648;50.614;13.830;2023-06-19T06:42:42;17.10;;;11.77;;
7213;SDS011;3648;50.614;13.830;2023-06-19T06:45:10;15.57;;;12.13;;
7213;SDS011;3648;50.614;13.830;2023-06-19T06:47:38;16.33;;;11.53;;
7213;SDS011;3648;50.614;13.830;2023-06-19T06:50:06;12.33;;;10.67;;
7213;SDS011;3648;50.614;13.830;2023-06-19T06:52:34;14.60;;;10.43;;
7213;SDS011;3648;50.614;13.830;2023-06-19T06:55:02;17.47;;;11.47;;
7213;SDS011;3648;50.614;13.830;2023-06-19T06:57:30;12.30;;;10.93;;
7213;SDS011;3648;50.614;13.830;2023-06-19T06:59:57;12.70;;;11.10;;
7213;SDS011;3648;50.614;13.830;2023-06-19T07:02:24;14.40;;;11.40;;
7213;SDS011;3648;50.614;13.830;2023-06-19T07:04:53;12.37;;;10.50;;
7213;SDS011;3648;50.614;13.830;2023-06-19T07:07:21;11.50;;;9.50;;
7213;SDS011;3648;50.614;13.830;2023-06-19T07:09:48;15.93;;;11.80;;
7213;SDS011;3648;50.614;13.830;2023-06-19T07:12:15;15.33;;;10.40;;
7213;SDS011;3648;50.614;13.830;2023-06-19T07:14:42;12.20;;;10.60;;
7213;SDS011;3648;50.614;13.830;2023-06-19T07:17:09;12.40;;;10.30;;
7213;SDS011;3648;50.614;13.830;2023-06-19T07:19:36;12.17;;;10.10;;
7213;SDS011;3648;50.614;13.830;2023-06-19T07:22:05;12.80;;;9.87;;
7213;SDS011;3648;50.614;13.830;2023-06-19T07:24:32;12.67;;;11.37;;
7213;SDS011;3648;50.614;13.830;2023-06-19T07:26:59;18.33;;;11.67;;
7213;SDS011;3648;50.614;13.830;2023-06-19T07:29:27;12.13;;;10.03;;
7213;SDS011;3648;50.614;13.830;2023-06-19T07:31:54;13.53;;;10.13;;
7213;SDS011;3648;50.614;13.830;2023-06-19T07:34:21;13.93;;;9.87;;
7213;SDS011;3648;50.614;13.830;2023-06-19T07:36:48;12.57;;;10.60;;
7213;SDS011;3648;50.614;13.830;2023-06-19T07:39:16;10.70;;;9.60;;
7213;SDS011;3648;50.614;13.830;2023-06-19T07:41:44;11.17;;;10.03;;
7213;SDS011;3648;50.614;13.830;2023-06-19T07:44:11;12.73;;;10.83;;
7213;SDS011;3648;50.614;13.830;2023-06-19T07:46:38;11.30;;;9.67;;
7213;SDS011;3648;50.614;13.830;2023-06-19T07:49:05;11.27;;;9.97;;
7213;SDS011;3648;50.614;13.830;2023-06-19T07:51:32;13.10;;;10.73;;
7213;SDS011;3648;50.614;13.830;2023-06-19T07:54:00;11.50;;;9.90;;
7213;SDS011;3648;50.614;13.830;2023-06-19T07:56:28;10.90;;;9.73;;
7213;SDS011;3648;50.614;13.830;2023-06-19T07:58:56;11.90;;;9.90;;
7213;SDS011;3648;50.614;13.830;2023-06-19T08:01:23;11.40;;;10.33;;
7213;SDS011;3648;50.614;13.830;2023-06-19T08:03:51;11.57;;;10.37;;
7213;SDS011;3648;50.614;13.830;2023-06-19T08:06:18;9.93;;;8.93;;
7213;SDS011;3648;50.614;13.830;2023-06-19T08:08:45;10.87;;;9.53;;
7213;SDS011;3648;50.614;13.830;2023-06-19T08:11:12;10.67;;;9.53;;
7213;SDS011;3648;50.614;13.830;2023-06-19T08:13:41;10.93;;;9.27;;
7213;SDS011;3648;50.614;13.830;2023-06-19T08:16:08;11.40;;;10.20;;
7213;SDS011;3648;50.614;13.830;2023-06-19T08:18:35;12.23;;;9.73;;
7213;SDS011;3648;50.614;13.830;2023-06-19T08:21:02;11.00;;;9.93;;
7213;SDS011;3648;50.614;13.830;2023-06-19T08:23:29;11.47;;;10.27;;
7213;SDS011;3648;50.614;13.830;2023-06-19T08:25:56;13.37;;;10.80;;
7213;SDS011;3648;50.614;13.830;2023-06-19T08:28:23;11.90;;;10.70;;
7213;SDS011;3648;50.614;13.830;2023-06-19T08:30:51;12.00;;;10.90;;
7213;SDS011;3648;50.614;13.830;2023-06-19T08:33:18;12.97;;;11.07;;
7213;SDS011;3648;50.614;13.830;2023-06-19T08:35:45;14.20;;;12.13;;
7213;SDS011;3648;50.614;13.830;2023-06-19T08:38:13;11.57;;;10.47;;
7213;SDS011;3648;50.614;13.830;2023-06-19T08:40:40;12.70;;;11.40;;
7213;SDS011;3648;50.614;13.830;2023-06-19T08:43:07;12.17;;;10.97;;
7213;SDS011;3648;50.614;13.830;2023-06-19T08:45:34;13.03;;;11.70;;
7213;SDS011;3648;50.614;13.830;2023-06-19T08:48:03;14.10;;;11.97;;
7213;SDS011;3648;50.614;13.830;2023-06-19T08:50:33;15.47;;;11.13;;
7213;SDS011;3648;50.614;13.830;2023-06-19T08:53:00;14.40;;;12.07;;
7213;SDS011;3648;50.614;13.830;2023-06-19T08:55:27;13.70;;;11.43;;
7213;SDS011;3648;50.614;13.830;2023-06-19T08:57:54;13.90;;;12.47;;
7213;SDS011;3648;50.614;13.830;2023-06-19T09:00:24;12.57;;;11.37;;
7213;SDS011;3648;50.614;13.830;2023-06-19T09:02:59;12.87;;;11.40;;
7213;SDS011;3648;50.614;13.830;2023-06-19T09:05:29;13.47;;;12.07;;
7213;SDS011;3648;50.614;13.830;2023-06-19T09:07:56;12.73;;;11.43;;
7213;SDS011;3648;50.614;13.830;2023-06-19T09:10:26;14.43;;;11.67;;
7213;SDS011;3648;50.614;13.830;2023-06-19T09:12:56;12.57;;;11.30;;
7213;SDS011;3648;50.614;13.830;2023-06-19T09:15:26;12.37;;;11.10;;
7213;SDS011;3648;50.614;13.830;2023-06-19T09:18:01;11.77;;;10.60;;
7213;SDS011;3648;50.614;13.830;2023-06-19T09:20:30;11.43;;;10.33;;
7213;SDS011;3648;50.614;13.830;2023-06-19T09:22:58;12.47;;;11.27;;
7213;SDS011;3648;50.614;13.830;2023-06-19T09:25:26;12.13;;;10.93;;
7213;SDS011;3648;50.614;13.830;2023-06-19T09:27:53;12.27;;;11.07;;
7213;SDS011;3648;50.614;13.830;2023-06-19T09:30:20;13.50;;;12.10;;
7213;SDS011;3648;50.614;13.830;2023-06-19T09:32:47;12.33;;;10.87;;
7213;SDS011;3648;50.614;13.830;2023-06-19T09:35:14;12.50;;;10.80;;
7213;SDS011;3648;50.614;13.830;2023-06-19T09:37:43;12.17;;;10.93;;
7213;SDS011;3648;50.614;13.830;2023-06-19T09:40:12;13.43;;;12.10;;
7213;SDS011;3648;50.614;13.830;2023-06-19T09:42:40;11.77;;;10.57;;
7213;SDS011;3648;50.614;13.830;2023-06-19T09:45:09;12.03;;;10.87;;
7213;SDS011;3648;50.614;13.830;2023-06-19T09:47:38;15.33;;;11.87;;
7213;SDS011;3648;50.614;13.830;2023-06-19T09:50:09;12.57;;;11.27;;
7213;SDS011;3648;50.614;13.830;2023-06-19T09:52:38;12.33;;;11.13;;
7213;SDS011;3648;50.614;13.830;2023-06-19T09:55:09;13.43;;;12.17;;
7213;SDS011;3648;50.614;13.830;2023-06-19T09:57:38;12.60;;;10.80;;
7213;SDS011;3648;50.614;13.830;2023-06-19T10:00:06;12.90;;;11.73;;
7213;SDS011;3648;50.614;13.830;2023-06-19T10:02:38;12.10;;;10.77;;
7213;SDS011;3648;50.614;13.830;2023-06-19T10:05:06;11.67;;;9.77;;
7213;SDS011;3648;50.614;13.830;2023-06-19T10:07:37;12.53;;;11.23;;
7213;SDS011;3648;50.614;13.830;2023-06-19T10:10:09;12.17;;;10.57;;
7213;SDS011;3648;50.614;13.830;2023-06-19T10:12:41;12.90;;;9.90;;
7213;SDS011;3648;50.614;13.830;2023-06-19T10:15:10;10.43;;;9.43;;
7213;SDS011;3648;50.614;13.830;2023-06-19T10:17:44;10.73;;;9.73;;
7213;SDS011;3648;50.614;13.830;2023-06-19T10:20:23;12.87;;;10.03;;
7213;SDS011;3648;50.614;13.830;2023-06-19T10:22:55;11.67;;;10.57;;
7213;SDS011;3648;50.614;13.830;2023-06-19T10:25:27;11.23;;;10.03;;
7213;SDS011;3648;50.614;13.830;2023-06-19T10:27:56;12.63;;;10.73;;
7213;SDS011;3648;50.614;13.830;2023-06-19T10:30:23;11.03;;;9.97;;
7213;SDS011;3648;50.614;13.830;2023-06-19T10:32:51;10.47;;;9.47;;
7213;SDS011;3648;50.614;13.830;2023-06-19T10:35:18;11.40;;;10.30;;
7213;SDS011;3648;50.614;13.830;2023-06-19T10:37:49;10.00;;;9.10;;
7213;SDS011;3648;50.614;13.830;2023-06-19T10:40:16;11.20;;;10.03;;
7213;SDS011;3648;50.614;13.830;2023-06-19T10:42:44;11.70;;;9.87;;
7213;SDS011;3648;50.614;13.830;2023-06-19T10:45:12;11.67;;;9.53;;
7213;SDS011;3648;50.614;13.830;2023-06-19T10:47:42;12.20;;;10.50;;
7213;SDS011;3648;50.614;13.830;2023-06-19T10:50:10;10.20;;;9.20;;
7213;SDS011;3648;50.614;13.830;2023-06-19T10:52:41;10.60;;;9.50;;
7213;SDS011;3648;50.614;13.830;2023-06-19T10:55:09;12.23;;;11.03;;
7213;SDS011;3648;50.614;13.830;2023-06-19T10:57:37;13.20;;;11.03;;
7213;SDS011;3648;50.614;13.830;2023-06-19T11:00:07;11.40;;;10.20;;
7213;SDS011;3648;50.614;13.830;2023-06-19T11:02:39;12.70;;;10.27;;
7213;SDS011;3648;50.614;13.830;2023-06-19T11:05:08;11.10;;;10.03;;
7213;SDS011;3648;50.614;13.830;2023-06-19T11:07:36;11.23;;;9.90;;
7213;SDS011;3648;50.614;13.830;2023-06-19T11:10:04;10.63;;;9.53;;
7213;SDS011;3648;50.614;13.830;2023-06-19T11:12:32;10.77;;;9.77;;
7213;SDS011;3648;50.614;13.830;2023-06-19T11:15:04;9.63;;;8.73;;
7213;SDS011;3648;50.614;13.830;2023-06-19T11:17:33;10.13;;;9.13;;
7213;SDS011;3648;50.614;13.830;2023-06-19T11:20:00;10.00;;;9.07;;
7213;SDS011;3648;50.614;13.830;2023-06-19T11:22:37;10.20;;;9.27;;
7213;SDS011;3648;50.614;13.830;2023-06-19T11:25:06;9.53;;;8.53;;
7213;SDS011;3648;50.614;13.830;2023-06-19T11:27:36;12.67;;;9.57;;
7213;SDS011;3648;50.614;13.830;2023-06-19T11:30:07;11.43;;;10.20;;
7213;SDS011;3648;50.614;13.830;2023-06-19T11:32:35;10.87;;;9.77;;
7213;SDS011;3648;50.614;13.830;2023-06-19T11:35:07;9.40;;;8.50;;
7213;SDS011;3648;50.614;13.830;2023-06-19T11:37:36;11.53;;;9.27;;
7213;SDS011;3648;50.614;13.830;2023-06-19T11:40:06;10.53;;;9.43;;
7213;SDS011;3648;50.614;13.830;2023-06-19T11:42:45;10.57;;;8.83;;
7213;SDS011;3648;50.614;13.830;2023-06-19T11:45:14;9.70;;;8.80;;
7213;SDS011;3648;50.614;13.830;2023-06-19T11:47:43;10.10;;;9.13;;
7213;SDS011;3648;50.614;13.830;2023-06-19T11:50:11;10.77;;;9.67;;
7213;SDS011;3648;50.614;13.830;2023-06-19T11:52:38;10.43;;;9.00;;
7213;SDS011;3648;50.614;13.830;2023-06-19T11:55:06;10.50;;;9.40;;
7213;SDS011;3648;50.614;13.830;2023-06-19T11:57:33;11.37;;;9.93;;
7213;SDS011;3648;50.614;13.830;2023-06-19T12:00:00;11.13;;;9.27;;
7213;SDS011;3648;50.614;13.830;2023-06-19T12:02:33;9.73;;;8.83;;
7213;SDS011;3648;50.614;13.830;2023-06-19T12:05:00;11.10;;;9.07;;
7213;SDS011;3648;50.614;13.830;2023-06-19T12:07:27;9.67;;;8.77;;
7213;SDS011;3648;50.614;13.830;2023-06-19T12:09:54;9.50;;;8.53;;
7213;SDS011;3648;50.614;13.830;2023-06-19T12:12:21;10.73;;;9.27;;
7213;SDS011;3648;50.614;13.830;2023-06-19T12:14:48;10.43;;;9.40;;
7213;SDS011;3648;50.614;13.830;2023-06-19T12:17:15;13.27;;;9.37;;
7213;SDS011;3648;50.614;13.830;2023-06-19T12:19:43;9.13;;;8.33;;
7213;SDS011;3648;50.614;13.830;2023-06-19T12:22:10;9.83;;;8.83;;
7213;SDS011;3648;50.614;13.830;2023-06-19T12:24:37;10.73;;;9.60;;
7213;SDS011;3648;50.614;13.830;2023-06-19T12:27:05;12.77;;;9.57;;
7213;SDS011;3648;50.614;13.830;2023-06-19T12:29:31;11.47;;;9.13;;
7213;SDS011;3648;50.614;13.830;2023-06-19T12:31:59;10.63;;;9.53;;
7213;SDS011;3648;50.614;13.830;2023-06-19T12:34:28;10.30;;;8.53;;
7213;SDS011;3648;50.614;13.830;2023-06-19T12:36:56;10.10;;;8.37;;
7213;SDS011;3648;50.614;13.830;2023-06-19T12:39:23;9.00;;;7.83;;
7213;SDS011;3648;50.614;13.830;2023-06-19T12:41:51;9.27;;;8.37;;
7213;SDS011;3648;50.614;13.830;2023-06-19T12:44:18;9.10;;;8.03;;
7213;SDS011;3648;50.614;13.830;2023-06-19T12:46:47;11.67;;;8.87;;
7213;SDS011;3648;50.614;13.830;2023-06-19T12:49:14;13.60;;;8.17;;
7213;SDS011;3648;50.614;13.830;2023-06-19T12:51:41;9.07;;;8.10;;
7213;SDS011;3648;50.614;13.830;2023-06-19T12:54:09;8.00;;;7.30;;
7213;SDS011;3648;50.614;13.830;2023-06-19T12:56:36;10.00;;;8.10;;
7213;SDS011;3648;50.614;13.830;2023-06-19T12:59:03;10.37;;;7.83;;
7213;SDS011;3648;50.614;13.830;2023-06-19T13:01:30;11.23;;;7.63;;
7213;SDS011;3648;50.614;13.830;2023-06-19T13:03:57;9.20;;;8.23;;
7213;SDS011;3648;50.614;13.830;2023-06-19T13:06:24;9.37;;;7.43;;
7213;SDS011;3648;50.614;13.830;2023-06-19T13:08:51;9.97;;;8.83;;
7213;SDS011;3648;50.614;13.830;2023-06-19T13:11:20;8.73;;;7.53;;
7213;SDS011;3648;50.614;13.830;2023-06-19T13:13:47;8.97;;;8.07;;
7213;SDS011;3648;50.614;13.830;2023-06-19T13:16:14;8.67;;;7.80;;
7213;SDS011;3648;50.614;13.830;2023-06-19T13:18:41;8.87;;;8.07;;
7213;SDS011;3648;50.614;13.830;2023-06-19T13:21:08;8.37;;;7.57;;
7213;SDS011;3648;50.614;13.830;2023-06-19T13:23:35;8.57;;;7.70;;
7213;SDS011;3648;50.614;13.830;2023-06-19T13:26:02;10.30;;;7.80;;
7213;SDS011;3648;50.614;13.830;2023-06-19T13:28:32;8.40;;;7.60;;
7213;SDS011;3648;50.614;13.830;2023-06-19T13:30:59;9.80;;;8.33;;
7213;SDS011;3648;50.614;13.830;2023-06-19T13:33:26;10.53;;;8.10;;
7213;SDS011;3648;50.614;13.830;2023-06-19T13:35:54;9.93;;;8.57;;
7213;SDS011;3648;50.614;13.830;2023-06-19T13:38:21;11.67;;;8.70;;
7213;SDS011;3648;50.614;13.830;2023-06-19T13:40:48;8.63;;;7.67;;
7213;SDS011;3648;50.614;13.830;2023-06-19T13:43:15;9.70;;;8.50;;
7213;SDS011;3648;50.614;13.830;2023-06-19T13:45:44;9.30;;;8.30;;
7213;SDS011;3648;50.614;13.830;2023-06-19T13:48:11;11.53;;;8.30;;
7213;SDS011;3648;50.614;13.830;2023-06-19T13:50:38;8.17;;;7.43;;
7213;SDS011;3648;50.614;13.830;2023-06-19T13:53:05;9.60;;;8.70;;
7213;SDS011;3648;50.614;13.830;2023-06-19T13:55:32;8.83;;;7.93;;
7213;SDS011;3648;50.614;13.830;2023-06-19T13:57:59;8.67;;;7.87;;
7213;SDS011;3648;50.614;13.830;2023-06-19T14:00:26;9.20;;;8.17;;
7213;SDS011;3648;50.614;13.830;2023-06-19T14:02:54;8.73;;;7.63;;
7213;SDS011;3648;50.614;13.830;2023-06-19T14:05:21;8.53;;;7.63;;
7213;SDS011;3648;50.614;13.830;2023-06-19T14:07:48;9.63;;;8.37;;
7213;SDS011;3648;50.614;13.830;2023-06-19T14:10:17;9.87;;;8.60;;
7213;SDS011;3648;50.614;13.830;2023-06-19T14:12:44;12.57;;;7.83;;
7213;SDS011;3648;50.614;13.830;2023-06-19T14:15:10;11.93;;;8.83;;
7213;SDS011;3648;50.614;13.830;2023-06-19T14:17:37;10.00;;;8.80;;
7213;SDS011;3648;50.614;13.830;2023-06-19T14:20:08;8.40;;;7.50;;
7213;SDS011;3648;50.614;13.830;2023-06-19T14:22:36;10.60;;;7.83;;
7213;SDS011;3648;50.614;13.830;2023-06-19T14:25:03;8.87;;;8.07;;
7213;SDS011;3648;50.614;13.830;2023-06-19T14:27:31;9.43;;;8.53;;
7213;SDS011;3648;50.614;13.830;2023-06-19T14:29:58;9.33;;;8.40;;
7213;SDS011;3648;50.614;13.830;2023-06-19T14:32:25;9.87;;;8.60;;
7213;SDS011;3648;50.614;13.830;2023-06-19T14:34:52;12.40;;;8.23;;
7213;SDS011;3648;50.614;13.830;2023-06-19T14:37:20;8.33;;;7.53;;
7213;SDS011;3648;50.614;13.830;2023-06-19T14:39:47;8.47;;;7.67;;
7213;SDS011;3648;50.614;13.830;2023-06-19T14:42:14;8.63;;;7.83;;
7213;SDS011;3648;50.614;13.830;2023-06-19T14:44:41;8.97;;;8.07;;
7213;SDS011;3648;50.614;13.830;2023-06-19T14:47:08;8.83;;;8.03;;
7213;SDS011;3648;50.614;13.830;2023-06-19T14:49:35;8.43;;;7.63;;
7213;SDS011;3648;50.614;13.830;2023-06-19T14:52:02;9.67;;;7.60;;
7213;SDS011;3648;50.614;13.830;2023-06-19T14:54:31;8.53;;;7.73;;